sensor_id;sensor_type;location;lat;lon;timestamp;P1;durP1;ratioP1;P2;durP2;ratioP2
14094;SDS011;18096;48.142;16.290;2023-12-20T00:02:17;24.50;;;14.43;;
14094;SDS011;18096;48.142;16.290;2023-12-20T00:04:42;28.20;;;12.77;;
14094;SDS011;18096;48.142;16.290;2023-12-20T00:07:08;23.13;;;13.03;;
14094;SDS011;18096;48.142;16.290;2023-12-20T00:09:33;23.10;;;12.70;;
14094;SDS011;18096;48.142;16.290;2023-12-20T00:11:59;35.27;;;14.03;;
14094;SDS011;18096;48.142;16.290;2023-12-20T00:14:25;27.83;;;13.00;;
14094;SDS011;18096;48.142;16.290;2023-12-20T00:16:50;19.67;;;12.37;;
14094;SDS011;18096;48.142;16.290;2023-12-20T00:19:16;21.50;;;12.13;;
14094;SDS011;18096;48.142;16.290;2023-12-20T00:21:42;22.33;;;12.60;;
14094;SDS011;18096;48.142;16.290;2023-12-20T00:24:07;31.75;;;17.23;;
14094;SDS011;18096;48.142;16.290;2023-12-20T00:26:33;33.65;;;18.05;;
14094;SDS011;18096;48.142;16.290;2023-12-20T00:28:59;28.05;;;17.00;;
14094;SDS011;18096;48.142;16.290;2023-12-20T00:31:25;40.50;;;16.38;;
14094;SDS011;18096;48.142;16.290;2023-12-20T00:33:50;23.40;;;14.30;;
14094;SDS011;18096;48.142;16.290;2023-12-20T00:36:16;34.63;;;16.07;;
14094;SDS011;18096;48.142;16.290;2023-12-20T00:38:41;26.70;;;15.10;;
14094;SDS011;18096;48.142;16.290;2023-12-20T00:41:07;25.10;;;14.57;;
14094;SDS011;18096;48.142;16.290;2023-12-20T00:43:33;30.38;;;14.35;;
14094;SDS011;18096;48.142;16.290;2023-12-20T00:45:58;25.40;;;14.23;;
14094;SDS011;18096;48.142;16.290;2023-12-20T00:48:25;27.48;;;13.55;;
14094;SDS011;18096;48.142;16.290;2023-12-20T00:50:52;25.23;;;14.13;;
14094;SDS011;18096;48.142;16.290;2023-12-20T00:53:18;21.23;;;14.15;;
14094;SDS011;18096;48.142;16.290;2023-12-20T00:55:43;22.05;;;14.15;;
14094;SDS011;18096;48.142;16.290;2023-12-20T00:58:10;27.13;;;14.15;;
14094;SDS011;18096;48.142;16.290;2023-12-20T01:00:35;23.03;;;12.93;;
14094;SDS011;18096;48.142;16.290;2023-12-20T01:03:01;28.00;;;14.60;;
14094;SDS011;18096;48.142;16.290;2023-12-20T01:05:27;24.25;;;13.52;;
14094;SDS011;18096;48.142;16.290;2023-12-20T01:07:52;21.48;;;12.90;;
14094;SDS011;18096;48.142;16.290;2023-12-20T01:10:18;22.35;;;12.95;;
14094;SDS011;18096;48.142;16.290;2023-12-20T01:12:44;21.50;;;13.47;;
14094;SDS011;18096;48.142;16.290;2023-12-20T01:15:09;23.23;;;13.10;;
14094;SDS011;18096;48.142;16.290;2023-12-20T01:17:35;20.37;;;12.40;;
14094;SDS011;18096;48.142;16.290;2023-12-20T01:20:01;22.92;;;13.88;;
14094;SDS011;18096;48.142;16.290;2023-12-20T01:22:26;26.17;;;13.50;;
14094;SDS011;18096;48.142;16.290;2023-12-20T01:24:52;20.55;;;12.77;;
14094;SDS011;18096;48.142;16.290;2023-12-20T01:27:18;19.17;;;12.05;;
14094;SDS011;18096;48.142;16.290;2023-12-20T01:29:43;21.93;;;13.20;;
14094;SDS011;18096;48.142;16.290;2023-12-20T01:32:09;21.27;;;12.70;;
14094;SDS011;18096;48.142;16.290;2023-12-20T01:34:35;25.87;;;12.93;;
14094;SDS011;18096;48.142;16.290;2023-12-20T01:37:01;23.77;;;13.65;;
14094;SDS011;18096;48.142;16.290;2023-12-20T01:39:27;26.65;;;13.13;;
14094;SDS011;18096;48.142;16.290;2023-12-20T01:41:53;30.00;;;15.00;;
14094;SDS011;18096;48.142;16.290;2023-12-20T01:44:19;28.65;;;16.42;;
14094;SDS011;18096;48.142;16.290;2023-12-20T01:46:44;23.40;;;12.90;;
14094;SDS011;18096;48.142;16.290;2023-12-20T01:49:11;22.05;;;12.88;;
14094;SDS011;18096;48.142;16.290;2023-12-20T01:51:37;20.88;;;11.88;;
14094;SDS011;18096;48.142;16.290;2023-12-20T01:54:03;34.35;;;14.73;;
14094;SDS011;18096;48.142;16.290;2023-12-20T01:56:29;20.45;;;13.07;;
14094;SDS011;18096;48.142;16.290;2023-12-20T01:58:56;23.95;;;13.02;;
14094;SDS011;18096;48.142;16.290;2023-12-20T02:01:23;19.45;;;12.52;;
14094;SDS011;18096;48.142;16.290;2023-12-20T02:03:49;23.67;;;12.68;;
14094;SDS011;18096;48.142;16.290;2023-12-20T02:06:16;23.58;;;12.75;;
14094;SDS011;18096;48.142;16.290;2023-12-20T02:08:43;18.77;;;12.43;;
14094;SDS011;18096;48.142;16.290;2023-12-20T02:11:08;18.70;;;11.70;;
14094;SDS011;18096;48.142;16.290;2023-12-20T02:13:35;19.67;;;11.52;;
14094;SDS011;18096;48.142;16.290;2023-12-20T02:16:01;23.35;;;12.45;;
14094;SDS011;18096;48.142;16.290;2023-12-20T02:18:27;22.70;;;12.53;;
14094;SDS011;18096;48.142;16.290;2023-12-20T02:20:53;17.40;;;11.30;;
14094;SDS011;18096;48.142;16.290;2023-12-20T02:23:18;24.00;;;12.97;;
14094;SDS011;18096;48.142;16.290;2023-12-20T02:25:44;16.92;;;11.73;;
14094;SDS011;18096;48.142;16.290;2023-12-20T02:28:10;19.52;;;11.00;;
14094;SDS011;18096;48.142;16.290;2023-12-20T02:30:35;20.33;;;11.50;;
14094;SDS011;18096;48.142;16.290;2023-12-20T02:33:01;20.40;;;11.77;;
14094;SDS011;18096;48.142;16.290;2023-12-20T02:35:32;17.70;;;11.07;;
14094;SDS011;18096;48.142;16.290;2023-12-20T02:37:57;16.20;;;10.97;;
14094;SDS011;18096;48.142;16.290;2023-12-20T02:40:23;16.05;;;10.55;;
14094;SDS011;18096;48.142;16.290;2023-12-20T02:42:49;18.73;;;11.85;;
14094;SDS011;18096;48.142;16.290;2023-12-20T02:45:14;15.30;;;10.70;;
14094;SDS011;18096;48.142;16.290;2023-12-20T02:47:40;17.43;;;11.70;;
14094;SDS011;18096;48.142;16.290;2023-12-20T02:50:06;20.13;;;11.13;;
14094;SDS011;18096;48.142;16.290;2023-12-20T02:52:31;16.00;;;10.75;;
14094;SDS011;18096;48.142;16.290;2023-12-20T02:54:57;15.43;;;10.32;;
14094;SDS011;18096;48.142;16.290;2023-12-20T02:57:23;16.90;;;10.50;;
14094;SDS011;18096;48.142;16.290;2023-12-20T02:59:48;16.60;;;9.73;;
14094;SDS011;18096;48.142;16.290;2023-12-20T03:02:14;13.83;;;9.90;;
14094;SDS011;18096;48.142;16.290;2023-12-20T03:04:40;13.48;;;9.55;;
14094;SDS011;18096;48.142;16.290;2023-12-20T03:07:06;18.30;;;10.85;;
14094;SDS011;18096;48.142;16.290;2023-12-20T03:09:32;19.25;;;10.95;;
14094;SDS011;18096;48.142;16.290;2023-12-20T03:11:58;14.60;;;9.75;;
14094;SDS011;18096;48.142;16.290;2023-12-20T03:14:23;14.18;;;10.50;;
14094;SDS011;18096;48.142;16.290;2023-12-20T03:16:49;16.20;;;11.03;;
14094;SDS011;18096;48.142;16.290;2023-12-20T03:19:16;14.93;;;11.05;;
14094;SDS011;18096;48.142;16.290;2023-12-20T03:21:42;19.98;;;11.35;;
14094;SDS011;18096;48.142;16.290;2023-12-20T03:24:08;15.77;;;10.40;;
14094;SDS011;18096;48.142;16.290;2023-12-20T03:26:34;17.23;;;10.38;;
14094;SDS011;18096;48.142;16.290;2023-12-20T03:28:59;16.23;;;10.13;;
14094;SDS011;18096;48.142;16.290;2023-12-20T03:31:25;19.80;;;10.23;;
14094;SDS011;18096;48.142;16.290;2023-12-20T03:33:50;15.10;;;10.00;;
14094;SDS011;18096;48.142;16.290;2023-12-20T03:36:18;16.48;;;9.93;;
14094;SDS011;18096;48.142;16.290;2023-12-20T03:38:44;16.30;;;10.70;;
14094;SDS011;18096;48.142;16.290;2023-12-20T03:41:10;14.73;;;10.23;;
14094;SDS011;18096;48.142;16.290;2023-12-20T03:43:35;15.98;;;10.32;;
14094;SDS011;18096;48.142;16.290;2023-12-20T03:46:01;15.88;;;10.68;;
14094;SDS011;18096;48.142;16.290;2023-12-20T03:48:29;18.92;;;11.15;;
14094;SDS011;18096;48.142;16.290;2023-12-20T03:50:56;18.60;;;11.80;;
14094;SDS011;18096;48.142;16.290;2023-12-20T03:53:22;17.42;;;11.55;;
14094;SDS011;18096;48.142;16.290;2023-12-20T03:55:48;18.10;;;10.97;;
14094;SDS011;18096;48.142;16.290;2023-12-20T03:58:13;17.30;;;10.20;;
14094;SDS011;18096;48.142;16.290;2023-12-20T04:00:39;18.10;;;11.70;;
14094;SDS011;18096;48.142;16.290;2023-12-20T04:03:04;17.27;;;11.83;;
14094;SDS011;18096;48.142;16.290;2023-12-20T04:05:30;18.30;;;11.40;;
14094;SDS011;18096;48.142;16.290;2023-12-20T04:07:56;16.30;;;10.33;;
14094;SDS011;18096;48.142;16.290;2023-12-20T04:10:21;18.02;;;11.13;;
14094;SDS011;18096;48.142;16.290;2023-12-20T04:12:47;16.08;;;11.07;;
14094;SDS011;18096;48.142;16.290;2023-12-20T04:15:12;16.73;;;9.40;;
14094;SDS011;18096;48.142;16.290;2023-12-20T04:17:38;15.57;;;11.17;;
14094;SDS011;18096;48.142;16.290;2023-12-20T04:20:04;16.60;;;11.50;;
14094;SDS011;18096;48.142;16.290;2023-12-20T04:22:30;18.08;;;10.95;;
14094;SDS011;18096;48.142;16.290;2023-12-20T04:24:56;18.03;;;11.30;;
14094;SDS011;18096;48.142;16.290;2023-12-20T04:27:21;18.50;;;10.70;;
14094;SDS011;18096;48.142;16.290;2023-12-20T04:29:47;17.00;;;10.50;;
14094;SDS011;18096;48.142;16.290;2023-12-20T04:32:12;16.45;;;10.20;;
14094;SDS011;18096;48.142;16.290;2023-12-20T04:34:38;18.10;;;11.15;;
14094;SDS011;18096;48.142;16.290;2023-12-20T04:37:04;20.58;;;11.25;;
14094;SDS011;18096;48.142;16.290;2023-12-20T04:39:30;21.63;;;11.57;;
14094;SDS011;18096;48.142;16.290;2023-12-20T04:41:56;19.42;;;12.02;;
14094;SDS011;18096;48.142;16.290;2023-12-20T04:44:22;27.38;;;12.35;;
14094;SDS011;18096;48.142;16.290;2023-12-20T04:46:47;18.73;;;11.35;;
14094;SDS011;18096;48.142;16.290;2023-12-20T04:49:13;18.45;;;11.18;;
14094;SDS011;18096;48.142;16.290;2023-12-20T04:51:39;17.50;;;11.30;;
14094;SDS011;18096;48.142;16.290;2023-12-20T04:54:04;21.00;;;11.60;;
14094;SDS011;18096;48.142;16.290;2023-12-20T04:56:30;18.93;;;10.93;;
14094;SDS011;18096;48.142;16.290;2023-12-20T04:58:55;18.55;;;10.52;;
14094;SDS011;18096;48.142;16.290;2023-12-20T05:01:21;15.95;;;11.10;;
14094;SDS011;18096;48.142;16.290;2023-12-20T05:03:47;20.42;;;11.32;;
14094;SDS011;18096;48.142;16.290;2023-12-20T05:06:13;17.35;;;10.55;;
14094;SDS011;18096;48.142;16.290;2023-12-20T05:08:38;15.77;;;9.40;;
14094;SDS011;18096;48.142;16.290;2023-12-20T05:11:04;9.33;;;5.73;;
14094;SDS011;18096;48.142;16.290;2023-12-20T05:13:30;6.30;;;3.60;;
14094;SDS011;18096;48.142;16.290;2023-12-20T05:15:55;2.72;;;2.53;;
14094;SDS011;18096;48.142;16.290;2023-12-20T05:18:21;2.70;;;2.50;;
14094;SDS011;18096;48.142;16.290;2023-12-20T05:20:48;10.00;;;6.05;;
14094;SDS011;18096;48.142;16.290;2023-12-20T05:23:14;12.95;;;9.90;;
14094;SDS011;18096;48.142;16.290;2023-12-20T05:25:40;16.97;;;9.53;;
14094;SDS011;18096;48.142;16.290;2023-12-20T05:28:05;17.33;;;9.60;;
14094;SDS011;18096;48.142;16.290;2023-12-20T05:30:31;17.25;;;9.38;;
14094;SDS011;18096;48.142;16.290;2023-12-20T05:32:57;15.07;;;9.38;;
14094;SDS011;18096;48.142;16.290;2023-12-20T05:35:22;14.45;;;8.90;;
14094;SDS011;18096;48.142;16.290;2023-12-20T05:37:48;15.67;;;9.67;;
14094;SDS011;18096;48.142;16.290;2023-12-20T05:40:14;19.23;;;9.07;;
14094;SDS011;18096;48.142;16.290;2023-12-20T05:42:40;15.15;;;8.65;;
14094;SDS011;18096;48.142;16.290;2023-12-20T05:45:06;13.20;;;8.17;;
14094;SDS011;18096;48.142;16.290;2023-12-20T05:47:31;9.00;;;6.80;;
14094;SDS011;18096;48.142;16.290;2023-12-20T05:49:57;5.70;;;4.33;;
14094;SDS011;18096;48.142;16.290;2023-12-20T05:52:23;3.20;;;2.83;;
14094;SDS011;18096;48.142;16.290;2023-12-20T05:54:49;3.30;;;2.07;;
14094;SDS011;18096;48.142;16.290;2023-12-20T05:57:15;1.83;;;1.73;;
14094;SDS011;18096;48.142;16.290;2023-12-20T05:59:40;1.70;;;1.60;;
14094;SDS011;18096;48.142;16.290;2023-12-20T06:02:06;4.10;;;1.90;;
14094;SDS011;18096;48.142;16.290;2023-12-20T06:04:32;1.90;;;1.70;;
14094;SDS011;18096;48.142;16.290;2023-12-20T06:06:57;3.70;;;1.60;;
14094;SDS011;18096;48.142;16.290;2023-12-20T06:09:24;1.60;;;1.40;;
14094;SDS011;18096;48.142;16.290;2023-12-20T06:11:51;2.30;;;2.10;;
14094;SDS011;18096;48.142;16.290;2023-12-20T06:14:17;1.80;;;1.43;;
14094;SDS011;18096;48.142;16.290;2023-12-20T06:16:42;2.63;;;1.50;;
14094;SDS011;18096;48.142;16.290;2023-12-20T06:19:08;3.20;;;1.45;;
14094;SDS011;18096;48.142;16.290;2023-12-20T06:21:34;1.40;;;1.30;;
14094;SDS011;18096;48.142;16.290;2023-12-20T06:23:59;1.50;;;1.40;;
14094;SDS011;18096;48.142;16.290;2023-12-20T06:26:25;1.60;;;1.50;;
14094;SDS011;18096;48.142;16.290;2023-12-20T06:28:50;1.27;;;1.17;;
14094;SDS011;18096;48.142;16.290;2023-12-20T06:31:16;1.50;;;1.40;;
14094;SDS011;18096;48.142;16.290;2023-12-20T06:33:42;1.30;;;1.30;;
14094;SDS011;18096;48.142;16.290;2023-12-20T06:36:11;2.08;;;1.30;;
14094;SDS011;18096;48.142;16.290;2023-12-20T06:38:38;1.95;;;1.80;;
14094;SDS011;18096;48.142;16.290;2023-12-20T06:41:04;2.60;;;1.40;;
14094;SDS011;18096;48.142;16.290;2023-12-20T06:43:30;4.45;;;1.30;;
14094;SDS011;18096;48.142;16.290;2023-12-20T06:45:57;1.40;;;1.30;;
14094;SDS011;18096;48.142;16.290;2023-12-20T06:48:23;1.92;;;1.13;;
14094;SDS011;18096;48.142;16.290;2023-12-20T06:50:49;1.60;;;1.50;;
14094;SDS011;18096;48.142;16.290;2023-12-20T06:53:14;3.13;;;1.40;;
14094;SDS011;18096;48.142;16.290;2023-12-20T06:55:40;2.00;;;1.80;;
14094;SDS011;18096;48.142;16.290;2023-12-20T06:58:05;1.20;;;1.17;;
14094;SDS011;18096;48.142;16.290;2023-12-20T07:00:32;3.83;;;1.58;;
14094;SDS011;18096;48.142;16.290;2023-12-20T07:02:58;1.70;;;1.60;;
14094;SDS011;18096;48.142;16.290;2023-12-20T07:05:24;1.50;;;1.20;;
14094;SDS011;18096;48.142;16.290;2023-12-20T07:07:49;1.70;;;1.58;;
14094;SDS011;18096;48.142;16.290;2023-12-20T07:10:15;1.50;;;1.30;;
14094;SDS011;18096;48.142;16.290;2023-12-20T07:12:40;1.50;;;1.40;;
14094;SDS011;18096;48.142;16.290;2023-12-20T07:15:06;1.70;;;1.60;;
14094;SDS011;18096;48.142;16.290;2023-12-20T07:17:33;1.70;;;1.60;;
14094;SDS011;18096;48.142;16.290;2023-12-20T07:19:59;1.73;;;1.50;;
14094;SDS011;18096;48.142;16.290;2023-12-20T07:22:28;1.52;;;1.38;;
14094;SDS011;18096;48.142;16.290;2023-12-20T07:25:00;1.87;;;1.77;;
14094;SDS011;18096;48.142;16.290;2023-12-20T07:27:26;2.23;;;1.80;;
14094;SDS011;18096;48.142;16.290;2023-12-20T07:29:52;2.92;;;2.20;;
14094;SDS011;18096;48.142;16.290;2023-12-20T07:32:18;2.70;;;1.80;;
14094;SDS011;18096;48.142;16.290;2023-12-20T07:34:43;2.67;;;1.38;;
14094;SDS011;18096;48.142;16.290;2023-12-20T07:37:09;1.53;;;1.43;;
14094;SDS011;18096;48.142;16.290;2023-12-20T07:39:37;3.07;;;1.63;;
14094;SDS011;18096;48.142;16.290;2023-12-20T07:42:03;3.60;;;1.73;;
14094;SDS011;18096;48.142;16.290;2023-12-20T07:44:28;1.50;;;1.20;;
14094;SDS011;18096;48.142;16.290;2023-12-20T07:46:54;1.60;;;1.40;;
14094;SDS011;18096;48.142;16.290;2023-12-20T07:49:19;1.90;;;1.80;;
14094;SDS011;18096;48.142;16.290;2023-12-20T07:51:45;2.63;;;1.55;;
14094;SDS011;18096;48.142;16.290;2023-12-20T07:54:11;2.53;;;2.00;;
14094;SDS011;18096;48.142;16.290;2023-12-20T07:56:36;3.90;;;1.80;;
14094;SDS011;18096;48.142;16.290;2023-12-20T07:59:02;1.23;;;1.20;;
14094;SDS011;18096;48.142;16.290;2023-12-20T08:01:27;2.90;;;1.80;;
14094;SDS011;18096;48.142;16.290;2023-12-20T08:03:53;2.00;;;1.70;;
14094;SDS011;18096;48.142;16.290;2023-12-20T08:06:19;4.57;;;2.55;;
14094;SDS011;18096;48.142;16.290;2023-12-20T08:08:46;2.80;;;1.90;;
14094;SDS011;18096;48.142;16.290;2023-12-20T08:11:12;2.10;;;1.80;;
14094;SDS011;18096;48.142;16.290;2023-12-20T08:13:37;1.70;;;1.60;;
14094;SDS011;18096;48.142;16.290;2023-12-20T08:16:03;3.13;;;2.07;;
14094;SDS011;18096;48.142;16.290;2023-12-20T08:18:29;2.35;;;1.70;;
14094;SDS011;18096;48.142;16.290;2023-12-20T08:20:55;2.63;;;1.60;;
14094;SDS011;18096;48.142;16.290;2023-12-20T08:23:20;2.58;;;1.90;;
14094;SDS011;18096;48.142;16.290;2023-12-20T08:25:46;3.60;;;2.70;;
14094;SDS011;18096;48.142;16.290;2023-12-20T08:28:13;2.00;;;1.90;;
14094;SDS011;18096;48.142;16.290;2023-12-20T08:30:38;2.10;;;1.90;;
14094;SDS011;18096;48.142;16.290;2023-12-20T08:33:04;2.10;;;1.90;;
14094;SDS011;18096;48.142;16.290;2023-12-20T08:35:32;3.17;;;1.83;;
14094;SDS011;18096;48.142;16.290;2023-12-20T08:37:58;2.00;;;1.90;;
14094;SDS011;18096;48.142;16.290;2023-12-20T08:40:24;2.40;;;1.23;;
14094;SDS011;18096;48.142;16.290;2023-12-20T08:42:49;1.73;;;1.63;;
14094;SDS011;18096;48.142;16.290;2023-12-20T08:45:15;2.03;;;1.60;;
14094;SDS011;18096;48.142;16.290;2023-12-20T08:47:40;2.80;;;1.80;;
14094;SDS011;18096;48.142;16.290;2023-12-20T08:50:06;7.18;;;1.58;;
14094;SDS011;18096;48.142;16.290;2023-12-20T08:52:32;2.90;;;2.00;;
14094;SDS011;18096;48.142;16.290;2023-12-20T08:54:58;2.20;;;1.50;;
14094;SDS011;18096;48.142;16.290;2023-12-20T08:57:23;1.33;;;1.23;;
14094;SDS011;18096;48.142;16.290;2023-12-20T08:59:50;2.00;;;1.90;;
14094;SDS011;18096;48.142;16.290;2023-12-20T09:02:16;2.90;;;1.80;;
14094;SDS011;18096;48.142;16.290;2023-12-20T09:04:42;2.30;;;2.10;;
14094;SDS011;18096;48.142;16.290;2023-12-20T09:07:23;3.70;;;1.70;;
14094;SDS011;18096;48.142;16.290;2023-12-20T09:09:50;2.47;;;1.65;;
14094;SDS011;18096;48.142;16.290;2023-12-20T09:12:17;1.40;;;1.30;;
14094;SDS011;18096;48.142;16.290;2023-12-20T09:14:44;2.63;;;1.92;;
14094;SDS011;18096;48.142;16.290;2023-12-20T09:17:10;1.50;;;1.30;;
14094;SDS011;18096;48.142;16.290;2023-12-20T09:19:37;2.20;;;1.10;;
14094;SDS011;18096;48.142;16.290;2023-12-20T09:22:03;1.80;;;1.30;;
14094;SDS011;18096;48.142;16.290;2023-12-20T09:24:29;1.50;;;1.40;;
14094;SDS011;18096;48.142;16.290;2023-12-20T09:26:55;1.40;;;1.30;;
14094;SDS011;18096;48.142;16.290;2023-12-20T09:29:21;1.00;;;1.00;;
14094;SDS011;18096;48.142;16.290;2023-12-20T09:31:46;1.00;;;1.00;;
14094;SDS011;18096;48.142;16.290;2023-12-20T09:34:14;1.00;;;1.00;;
14094;SDS011;18096;48.142;16.290;2023-12-20T09:36:40;1.40;;;1.30;;
14094;SDS011;18096;48.142;16.290;2023-12-20T09:39:11;0.75;;;0.75;;
14094;SDS011;18096;48.142;16.290;2023-12-20T09:41:44;1.80;;;1.30;;
14094;SDS011;18096;48.142;16.290;2023-12-20T09:44:15;1.33;;;1.23;;
14094;SDS011;18096;48.142;16.290;2023-12-20T09:46:44;1.10;;;1.10;;
14094;SDS011;18096;48.142;16.290;2023-12-20T09:49:14;1.23;;;1.13;;
14094;SDS011;18096;48.142;16.290;2023-12-20T09:51:43;1.00;;;1.00;;
14094;SDS011;18096;48.142;16.290;2023-12-20T09:54:11;1.07;;;1.07;;
14094;SDS011;18096;48.142;16.290;2023-12-20T09:56:41;1.10;;;1.10;;
14094;SDS011;18096;48.142;16.290;2023-12-20T09:59:07;0.90;;;0.90;;
14094;SDS011;18096;48.142;16.290;2023-12-20T10:01:33;0.90;;;0.90;;
14094;SDS011;18096;48.142;16.290;2023-12-20T10:04:00;1.10;;;1.00;;
14094;SDS011;18096;48.142;16.290;2023-12-20T10:06:28;1.50;;;1.10;;
14094;SDS011;18096;48.142;16.290;2023-12-20T10:08:53;1.20;;;1.10;;
14094;SDS011;18096;48.142;16.290;2023-12-20T10:11:19;1.42;;;0.98;;
14094;SDS011;18096;48.142;16.290;2023-12-20T10:13:45;1.10;;;1.00;;
14094;SDS011;18096;48.142;16.290;2023-12-20T10:16:13;1.40;;;1.30;;
14094;SDS011;18096;48.142;16.290;2023-12-20T10:18:39;1.10;;;1.10;;
14094;SDS011;18096;48.142;16.290;2023-12-20T10:21:05;1.00;;;1.00;;
14094;SDS011;18096;48.142;16.290;2023-12-20T10:23:31;0.80;;;0.80;;
14094;SDS011;18096;48.142;16.290;2023-12-20T10:25:57;0.90;;;0.90;;
14094;SDS011;18096;48.142;16.290;2023-12-20T10:28:26;1.00;;;1.00;;
14094;SDS011;18096;48.142;16.290;2023-12-20T10:30:57;1.40;;;1.08;;
14094;SDS011;18096;48.142;16.290;2023-12-20T10:33:27;1.10;;;0.93;;
14094;SDS011;18096;48.142;16.290;2023-12-20T10:35:59;1.27;;;1.07;;
14094;SDS011;18096;48.142;16.290;2023-12-20T10:38:24;1.00;;;0.90;;
14094;SDS011;18096;48.142;16.290;2023-12-20T10:40:52;1.00;;;0.90;;
14094;SDS011;18096;48.142;16.290;2023-12-20T10:43:22;0.75;;;0.75;;
14094;SDS011;18096;48.142;16.290;2023-12-20T10:45:51;1.13;;;0.68;;
14094;SDS011;18096;48.142;16.290;2023-12-20T10:48:17;0.90;;;0.70;;
14094;SDS011;18096;48.142;16.290;2023-12-20T10:50:43;1.40;;;0.80;;
14094;SDS011;18096;48.142;16.290;2023-12-20T10:53:10;0.80;;;0.80;;
14094;SDS011;18096;48.142;16.290;2023-12-20T10:55:37;0.60;;;0.60;;
14094;SDS011;18096;48.142;16.290;2023-12-20T10:58:09;1.07;;;1.07;;
14094;SDS011;18096;48.142;16.290;2023-12-20T11:00:44;0.90;;;0.90;;
14094;SDS011;18096;48.142;16.290;2023-12-20T11:03:12;1.80;;;1.20;;
14094;SDS011;18096;48.142;16.290;2023-12-20T11:05:44;0.90;;;0.90;;
14094;SDS011;18096;48.142;16.290;2023-12-20T11:08:39;1.60;;;1.00;;
14094;SDS011;18096;48.142;16.290;2023-12-20T11:11:27;0.80;;;0.80;;
14094;SDS011;18096;48.142;16.290;2023-12-20T11:14:05;0.90;;;0.90;;
14094;SDS011;18096;48.142;16.290;2023-12-20T11:16:37;1.60;;;0.98;;
14094;SDS011;18096;48.142;16.290;2023-12-20T11:19:06;0.97;;;0.70;;
14094;SDS011;18096;48.142;16.290;2023-12-20T11:21:32;0.60;;;0.60;;
14094;SDS011;18096;48.142;16.290;2023-12-20T11:23:58;0.70;;;0.70;;
14094;SDS011;18096;48.142;16.290;2023-12-20T11:26:28;0.90;;;0.70;;
14094;SDS011;18096;48.142;16.290;2023-12-20T11:29:28;0.80;;;0.80;;
14094;SDS011;18096;48.142;16.290;2023-12-20T11:31:56;3.20;;;0.70;;
14094;SDS011;18096;48.142;16.290;2023-12-20T11:34:21;0.90;;;0.70;;
14094;SDS011;18096;48.142;16.290;2023-12-20T11:36:56;0.73;;;0.73;;
14094;SDS011;18096;48.142;16.290;2023-12-20T11:39:26;0.90;;;0.90;;
14094;SDS011;18096;48.142;16.290;2023-12-20T11:41:55;0.90;;;0.90;;
14094;SDS011;18096;48.142;16.290;2023-12-20T11:44:22;0.70;;;0.70;;
14094;SDS011;18096;48.142;16.290;2023-12-20T11:46:48;0.50;;;0.50;;
14094;SDS011;18096;48.142;16.290;2023-12-20T11:49:14;1.60;;;0.70;;
14094;SDS011;18096;48.142;16.290;2023-12-20T11:51:42;1.52;;;0.60;;
14094;SDS011;18096;48.142;16.290;2023-12-20T11:54:09;1.10;;;0.60;;
14094;SDS011;18096;48.142;16.290;2023-12-20T11:56:36;0.70;;;0.70;;
14094;SDS011;18096;48.142;16.290;2023-12-20T11:59:02;0.70;;;0.70;;
14094;SDS011;18096;48.142;16.290;2023-12-20T12:01:28;1.10;;;0.90;;
14094;SDS011;18096;48.142;16.290;2023-12-20T12:04:06;0.70;;;0.70;;
14094;SDS011;18096;48.142;16.290;2023-12-20T12:06:32;0.70;;;0.60;;
14094;SDS011;18096;48.142;16.290;2023-12-20T12:08:58;0.60;;;0.50;;
14094;SDS011;18096;48.142;16.290;2023-12-20T12:11:24;0.70;;;0.70;;
14094;SDS011;18096;48.142;16.290;2023-12-20T12:13:49;0.50;;;0.50;;
14094;SDS011;18096;48.142;16.290;2023-12-20T12:16:19;0.80;;;0.80;;
14094;SDS011;18096;48.142;16.290;2023-12-20T12:18:45;0.90;;;0.80;;
14094;SDS011;18096;48.142;16.290;2023-12-20T12:21:18;0.70;;;0.70;;
14094;SDS011;18096;48.142;16.290;2023-12-20T12:23:45;0.50;;;0.50;;
14094;SDS011;18096;48.142;16.290;2023-12-20T12:26:11;0.90;;;0.50;;
14094;SDS011;18096;48.142;16.290;2023-12-20T12:28:37;0.68;;;0.68;;
14094;SDS011;18096;48.142;16.290;2023-12-20T12:31:06;0.90;;;0.60;;
14094;SDS011;18096;48.142;16.290;2023-12-20T12:33:32;0.60;;;0.60;;
14094;SDS011;18096;48.142;16.290;2023-12-20T12:35:57;0.60;;;0.60;;
14094;SDS011;18096;48.142;16.290;2023-12-20T12:38:24;0.50;;;0.50;;
14094;SDS011;18096;48.142;16.290;2023-12-20T12:40:50;1.58;;;0.75;;
14094;SDS011;18096;48.142;16.290;2023-12-20T12:43:18;0.60;;;0.60;;
14094;SDS011;18096;48.142;16.290;2023-12-20T12:45:44;0.70;;;0.70;;
14094;SDS011;18096;48.142;16.290;2023-12-20T12:48:10;0.80;;;0.80;;
14094;SDS011;18096;48.142;16.290;2023-12-20T12:50:35;0.90;;;0.60;;
14094;SDS011;18096;48.142;16.290;2023-12-20T12:53:01;2.35;;;0.70;;
14094;SDS011;18096;48.142;16.290;2023-12-20T12:55:27;0.55;;;0.55;;
14094;SDS011;18096;48.142;16.290;2023-12-20T12:57:53;0.67;;;0.67;;
14094;SDS011;18096;48.142;16.290;2023-12-20T13:00:19;0.57;;;0.57;;
14094;SDS011;18096;48.142;16.290;2023-12-20T13:02:45;0.50;;;0.50;;
14094;SDS011;18096;48.142;16.290;2023-12-20T13:05:11;1.30;;;0.50;;
14094;SDS011;18096;48.142;16.290;2023-12-20T13:07:36;4.28;;;0.60;;
14094;SDS011;18096;48.142;16.290;2023-12-20T13:10:02;0.82;;;0.82;;
14094;SDS011;18096;48.142;16.290;2023-12-20T13:12:29;0.60;;;0.60;;
14094;SDS011;18096;48.142;16.290;2023-12-20T13:14:55;0.60;;;0.60;;
14094;SDS011;18096;48.142;16.290;2023-12-20T13:17:20;0.80;;;0.80;;
14094;SDS011;18096;48.142;16.290;2023-12-20T13:19:46;0.60;;;0.60;;
14094;SDS011;18096;48.142;16.290;2023-12-20T13:22:11;1.40;;;1.00;;
14094;SDS011;18096;48.142;16.290;2023-12-20T13:24:37;0.70;;;0.60;;
14094;SDS011;18096;48.142;16.290;2023-12-20T13:27:03;0.63;;;0.63;;
14094;SDS011;18096;48.142;16.290;2023-12-20T13:29:28;0.70;;;0.70;;
14094;SDS011;18096;48.142;16.290;2023-12-20T13:31:54;0.60;;;0.60;;
14094;SDS011;18096;48.142;16.290;2023-12-20T13:34:20;0.70;;;0.70;;
14094;SDS011;18096;48.142;16.290;2023-12-20T13:36:46;1.80;;;0.70;;
14094;SDS011;18096;48.142;16.290;2023-12-20T13:39:12;0.73;;;0.73;;
14094;SDS011;18096;48.142;16.290;2023-12-20T13:41:39;0.68;;;0.68;;
14094;SDS011;18096;48.142;16.290;2023-12-20T13:44:04;0.80;;;0.80;;
14094;SDS011;18096;48.142;16.290;2023-12-20T13:46:30;0.90;;;0.90;;
14094;SDS011;18096;48.142;16.290;2023-12-20T13:48:56;0.60;;;0.60;;
14094;SDS011;18096;48.142;16.290;2023-12-20T13:51:22;0.70;;;0.70;;
14094;SDS011;18096;48.142;16.290;2023-12-20T13:53:48;1.10;;;0.70;;
14094;SDS011;18096;48.142;16.290;2023-12-20T13:56:14;0.60;;;0.60;;
14094;SDS011;18096;48.142;16.290;2023-12-20T13:58:40;1.90;;;0.80;;
14094;SDS011;18096;48.142;16.290;2023-12-20T14:01:07;0.70;;;0.70;;
14094;SDS011;18096;48.142;16.290;2023-12-20T14:03:35;0.60;;;0.60;;
14094;SDS011;18096;48.142;16.290;2023-12-20T14:06:01;0.50;;;0.50;;
14094;SDS011;18096;48.142;16.290;2023-12-20T14:08:27;0.75;;;0.70;;
14094;SDS011;18096;48.142;16.290;2023-12-20T14:10:53;0.60;;;0.60;;
14094;SDS011;18096;48.142;16.290;2023-12-20T14:13:18;0.60;;;0.60;;
14094;SDS011;18096;48.142;16.290;2023-12-20T14:15:44;2.80;;;0.90;;
14094;SDS011;18096;48.142;16.290;2023-12-20T14:18:10;0.60;;;0.60;;
14094;SDS011;18096;48.142;16.290;2023-12-20T14:20:37;0.60;;;0.60;;
14094;SDS011;18096;48.142;16.290;2023-12-20T14:23:04;0.60;;;0.60;;